sensor_id;sensor_type;location;lat;lon;timestamp;temperature;humidity
16825;DHT22;8529;48.108;-1.706;2022-10-16T00:01:06;15.00;99.90
16825;DHT22;8529;48.108;-1.706;2022-10-16T00:03:33;15.00;99.90
16825;DHT22;8529;48.108;-1.706;2022-10-16T00:06:01;15.10;99.90
16825;DHT22;8529;48.108;-1.706;2022-10-16T00:08:28;15.00;99.90
16825;DHT22;8529;48.108;-1.706;2022-10-16T00:10:59;15.00;99.90
16825;DHT22;8529;48.108;-1.706;2022-10-16T00:13:26;15.00;99.90
16825;DHT22;8529;48.108;-1.706;2022-10-16T00:15:55;15.10;99.90
16825;DHT22;8529;48.108;-1.706;2022-10-16T00:18:24;15.10;99.90
16825;DHT22;8529;48.108;-1.706;2022-10-16T00:20:51;15.00;99.90
16825;DHT22;8529;48.108;-1.706;2022-10-16T00:23:18;15.00;99.90
16825;DHT22;8529;48.108;-1.706;2022-10-16T00:25:54;15.00;99.90
16825;DHT22;8529;48.108;-1.706;2022-10-16T00:28:21;15.00;99.90
16825;DHT22;8529;48.108;-1.706;2022-10-16T00:30:48;15.00;99.90
16825;DHT22;8529;48.108;-1.706;2022-10-16T00:33:15;15.00;99.90
16825;DHT22;8529;48.108;-1.706;2022-10-16T00:35:44;15.00;99.90
16825;DHT22;8529;48.108;-1.706;2022-10-16T00:38:11;15.00;99.90
16825;DHT22;8529;48.108;-1.706;2022-10-16T00:40:38;15.00;99.90
16825;DHT22;8529;48.108;-1.706;2022-10-16T00:43:12;15.00;99.90
16825;DHT22;8529;48.108;-1.706;2022-10-16T00:45:39;15.00;99.90
16825;DHT22;8529;48.108;-1.706;2022-10-16T00:48:09;15.00;99.90
16825;DHT22;8529;48.108;-1.706;2022-10-16T00:50:37;15.00;99.90
16825;DHT22;8529;48.108;-1.706;2022-10-16T00:53:06;15.00;99.90
16825;DHT22;8529;48.108;-1.706;2022-10-16T00:55:33;15.00;99.90
16825;DHT22;8529;48.108;-1.706;2022-10-16T00:58:00;15.00;99.90
16825;DHT22;8529;48.108;-1.706;2022-10-16T01:00:27;15.00;99.90
16825;DHT22;8529;48.108;-1.706;2022-10-16T01:02:55;15.00;99.90
16825;DHT22;8529;48.108;-1.706;2022-10-16T01:05:22;15.00;99.90
16825;DHT22;8529;48.108;-1.706;2022-10-16T01:07:56;15.00;99.90
16825;DHT22;8529;48.108;-1.706;2022-10-16T01:10:29;15.00;99.90
16825;DHT22;8529;48.108;-1.706;2022-10-16T01:13:02;15.00;99.90
16825;DHT22;8529;48.108;-1.706;2022-10-16T01:15:32;15.10;99.90
16825;DHT22;8529;48.108;-1.706;2022-10-16T01:18:03;15.00;99.90
16825;DHT22;8529;48.108;-1.706;2022-10-16T01:20:34;15.00;99.90
16825;DHT22;8529;48.108;-1.706;2022-10-16T01:23:10;15.00;99.90
16825;DHT22;8529;48.108;-1.706;2022-10-16T01:28:51;15.00;99.90
16825;DHT22;8529;48.108;-1.706;2022-10-16T01:31:23;15.00;99.90
16825;DHT22;8529;48.108;-1.706;2022-10-16T01:33:57;15.00;99.90
16825;DHT22;8529;48.108;-1.706;2022-10-16T01:36:29;15.00;99.90
16825;DHT22;8529;48.108;-1.706;2022-10-16T01:39:01;14.90;99.90
16825;DHT22;8529;48.108;-1.706;2022-10-16T01:41:32;15.00;99.90
16825;DHT22;8529;48.108;-1.706;2022-10-16T01:44:04;14.90;99.90
16825;DHT22;8529;48.108;-1.706;2022-10-16T01:46:32;14.90;99.90
16825;DHT22;8529;48.108;-1.706;2022-10-16T01:49:01;15.00;99.90
16825;DHT22;8529;48.108;-1.706;2022-10-16T01:51:29;14.90;99.90
16825;DHT22;8529;48.108;-1.706;2022-10-16T01:53:59;14.90;99.90
16825;DHT22;8529;48.108;-1.706;2022-10-16T01:56:27;14.90;99.90
16825;DHT22;8529;48.108;-1.706;2022-10-16T01:58:59;14.90;99.90
16825;DHT22;8529;48.108;-1.706;2022-10-16T02:01:31;14.90;99.90
16825;DHT22;8529;48.108;-1.706;2022-10-16T02:04:03;14.90;99.90
16825;DHT22;8529;48.108;-1.706;2022-10-16T02:06:32;14.80;99.90
16825;DHT22;8529;48.108;-1.706;2022-10-16T02:09:00;14.80;99.90
16825;DHT22;8529;48.108;-1.706;2022-10-16T02:11:27;14.80;99.90
16825;DHT22;8529;48.108;-1.706;2022-10-16T02:13:57;14.80;99.90
16825;DHT22;8529;48.108;-1.706;2022-10-16T02:16:34;14.80;99.90
16825;DHT22;8529;48.108;-1.706;2022-10-16T02:19:02;14.80;99.90
16825;DHT22;8529;48.108;-1.706;2022-10-16T02:21:32;14.80;99.90
16825;DHT22;8529;48.108;-1.706;2022-10-16T02:24:04;14.80;99.90
16825;DHT22;8529;48.108;-1.706;2022-10-16T02:26:39;14.70;99.90
16825;DHT22;8529;48.108;-1.706;2022-10-16T02:29:12;14.70;99.90
16825;DHT22;8529;48.108;-1.706;2022-10-16T02:31:44;14.70;99.90
16825;DHT22;8529;48.108;-1.706;2022-10-16T02:34:13;14.70;99.90
16825;DHT22;8529;48.108;-1.706;2022-10-16T02:36:42;14.70;99.90
16825;DHT22;8529;48.108;-1.706;2022-10-16T02:39:09;14.60;99.90
16825;DHT22;8529;48.108;-1.706;2022-10-16T02:41:37;14.60;99.90
16825;DHT22;8529;48.108;-1.706;2022-10-16T02:44:04;14.60;99.90
16825;DHT22;8529;48.108;-1.706;2022-10-16T02:46:31;14.60;99.90
16825;DHT22;8529;48.108;-1.706;2022-10-16T02:49:00;14.50;99.90
16825;DHT22;8529;48.108;-1.706;2022-10-16T02:51:27;14.50;99.90
16825;DHT22;8529;48.108;-1.706;2022-10-16T02:53:54;14.50;99.90
16825;DHT22;8529;48.108;-1.706;2022-10-16T02:56:21;14.40;99.90
16825;DHT22;8529;48.108;-1.706;2022-10-16T02:58:48;14.40;99.90
16825;DHT22;8529;48.108;-1.706;2022-10-16T03:01:15;14.40;99.90
16825;DHT22;8529;48.108;-1.706;2022-10-16T03:03:42;14.40;99.90
16825;DHT22;8529;48.108;-1.706;2022-10-16T03:06:11;14.50;99.90
16825;DHT22;8529;48.108;-1.706;2022-10-16T03:08:38;14.40;99.90
16825;DHT22;8529;48.108;-1.706;2022-10-16T03:11:05;14.40;99.90
16825;DHT22;8529;48.108;-1.706;2022-10-16T03:13:31;14.40;99.90
16825;DHT22;8529;48.108;-1.706;2022-10-16T03:15:58;14.40;99.90
16825;DHT22;8529;48.108;-1.706;2022-10-16T03:18:25;14.50;99.90
16825;DHT22;8529;48.108;-1.706;2022-10-16T03:20:52;14.50;99.90
16825;DHT22;8529;48.108;-1.706;2022-10-16T03:23:20;14.50;99.90
16825;DHT22;8529;48.108;-1.706;2022-10-16T03:25:47;14.60;99.90
16825;DHT22;8529;48.108;-1.706;2022-10-16T03:28:14;14.60;99.90
16825;DHT22;8529;48.108;-1.706;2022-10-16T03:30:43;14.60;99.90
16825;DHT22;8529;48.108;-1.706;2022-10-16T03:33:10;14.60;99.90
16825;DHT22;8529;48.108;-1.706;2022-10-16T03:35:37;14.70;99.90
16825;DHT22;8529;48.108;-1.706;2022-10-16T03:38:04;14.70;99.90
16825;DHT22;8529;48.108;-1.706;2022-10-16T03:40:32;14.70;99.90
16825;DHT22;8529;48.108;-1.706;2022-10-16T03:42:59;14.70;99.90
16825;DHT22;8529;48.108;-1.706;2022-10-16T03:45:26;14.70;99.90
16825;DHT22;8529;48.108;-1.706;2022-10-16T03:47:53;14.70;99.90
16825;DHT22;8529;48.108;-1.706;2022-10-16T03:50:20;14.80;99.90
16825;DHT22;8529;48.108;-1.706;2022-10-16T03:52:47;14.80;99.90
16825;DHT22;8529;48.108;-1.706;2022-10-16T03:55:14;14.80;99.90
16825;DHT22;8529;48.108;-1.706;2022-10-16T03:57:42;14.80;99.90
16825;DHT22;8529;48.108;-1.706;2022-10-16T04:00:11;14.80;99.90
16825;DHT22;8529;48.108;-1.706;2022-10-16T04:02:38;14.80;99.90
16825;DHT22;8529;48.108;-1.706;2022-10-16T04:05:05;14.80;99.90
16825;DHT22;8529;48.108;-1.706;2022-10-16T04:07:32;14.80;99.90
16825;DHT22;8529;48.108;-1.706;2022-10-16T04:09:59;14.80;99.90
16825;DHT22;8529;48.108;-1.706;2022-10-16T04:12:26;14.80;99.90
16825;DHT22;8529;48.108;-1.706;2022-10-16T04:14:54;14.80;99.90
16825;DHT22;8529;48.108;-1.706;2022-10-16T04:17:21;14.90;99.90
16825;DHT22;8529;48.108;-1.706;2022-10-16T04:19:48;14.90;99.90
16825;DHT22;8529;48.108;-1.706;2022-10-16T04:22:15;14.90;99.90
16825;DHT22;8529;48.108;-1.706;2022-10-16T04:24:42;14.80;99.90
16825;DHT22;8529;48.108;-1.706;2022-10-16T04:27:09;14.80;99.90
16825;DHT22;8529;48.108;-1.706;2022-10-16T04:29:36;14.90;99.90
16825;DHT22;8529;48.108;-1.706;2022-10-16T04:32:04;14.90;99.90
16825;DHT22;8529;48.108;-1.706;2022-10-16T04:34:31;14.90;99.90
16825;DHT22;8529;48.108;-1.706;2022-10-16T04:36:58;14.90;99.90
16825;DHT22;8529;48.108;-1.706;2022-10-16T04:39:25;14.90;99.90
16825;DHT22;8529;48.108;-1.706;2022-10-16T04:41:52;14.90;99.90
16825;DHT22;8529;48.108;-1.706;2022-10-16T04:44:19;14.90;99.90
16825;DHT22;8529;48.108;-1.706;2022-10-16T04:46:45;14.90;99.90
16825;DHT22;8529;48.108;-1.706;2022-10-16T04:49:14;14.90;99.90
16825;DHT22;8529;48.108;-1.706;2022-10-16T04:51:41;15.00;99.90
16825;DHT22;8529;48.108;-1.706;2022-10-16T04:54:08;14.90;99.90
16825;DHT22;8529;48.108;-1.706;2022-10-16T04:56:35;15.00;99.90
16825;DHT22;8529;48.108;-1.706;2022-10-16T04:59:09;15.00;99.90
16825;DHT22;8529;48.108;-1.706;2022-10-16T05:01:35;15.00;99.90
16825;DHT22;8529;48.108;-1.706;2022-10-16T05:04:02;15.00;99.90
16825;DHT22;8529;48.108;-1.706;2022-10-16T05:06:31;15.00;99.90
16825;DHT22;8529;48.108;-1.706;2022-10-16T05:08:58;15.00;99.90
16825;DHT22;8529;48.108;-1.706;2022-10-16T05:11:25;15.00;99.90
16825;DHT22;8529;48.108;-1.706;2022-10-16T05:13:52;15.00;99.90
16825;DHT22;8529;48.108;-1.706;2022-10-16T05:16:18;15.00;99.90
16825;DHT22;8529;48.108;-1.706;2022-10-16T05:18:45;15.00;99.90
16825;DHT22;8529;48.108;-1.706;2022-10-16T05:21:12;15.00;99.90
16825;DHT22;8529;48.108;-1.706;2022-10-16T05:23:41;15.00;99.90
16825;DHT22;8529;48.108;-1.706;2022-10-16T05:26:08;15.00;99.90
16825;DHT22;8529;48.108;-1.706;2022-10-16T05:28:35;15.00;99.90
16825;DHT22;8529;48.108;-1.706;2022-10-16T05:31:04;15.00;99.90
16825;DHT22;8529;48.108;-1.706;2022-10-16T05:33:32;15.00;99.90
16825;DHT22;8529;48.108;-1.706;2022-10-16T05:36:01;15.00;99.90
16825;DHT22;8529;48.108;-1.706;2022-10-16T05:38:28;15.10;99.90
16825;DHT22;8529;48.108;-1.706;2022-10-16T05:40:56;15.10;99.90
16825;DHT22;8529;48.108;-1.706;2022-10-16T05:43:23;15.10;99.90
16825;DHT22;8529;48.108;-1.706;2022-10-16T05:45:54;15.10;99.90
16825;DHT22;8529;48.108;-1.706;2022-10-16T05:48:21;15.10;99.90
16825;DHT22;8529;48.108;-1.706;2022-10-16T05:50:55;15.10;99.90
16825;DHT22;8529;48.108;-1.706;2022-10-16T05:53:22;15.10;99.90
16825;DHT22;8529;48.108;-1.706;2022-10-16T05:55:52;15.10;99.90
16825;DHT22;8529;48.108;-1.706;2022-10-16T05:58:21;15.10;99.90
16825;DHT22;8529;48.108;-1.706;2022-10-16T06:00:53;15.10;99.90
16825;DHT22;8529;48.108;-1.706;2022-10-16T06:03:20;15.10;99.90
16825;DHT22;8529;48.108;-1.706;2022-10-16T06:05:47;15.10;99.90
16825;DHT22;8529;48.108;-1.706;2022-10-16T06:08:14;15.10;99.90
16825;DHT22;8529;48.108;-1.706;2022-10-16T06:10:41;15.10;99.90
16825;DHT22;8529;48.108;-1.706;2022-10-16T06:13:09;15.10;99.90
16825;DHT22;8529;48.108;-1.706;2022-10-16T06:15:37;15.10;99.90
16825;DHT22;8529;48.108;-1.706;2022-10-16T06:18:04;15.10;99.90
16825;DHT22;8529;48.108;-1.706;2022-10-16T06:20:31;15.10;99.90
16825;DHT22;8529;48.108;-1.706;2022-10-16T06:22:58;15.10;99.90
16825;DHT22;8529;48.108;-1.706;2022-10-16T06:25:25;15.10;99.90
16825;DHT22;8529;48.108;-1.706;2022-10-16T06:27:52;15.10;99.90
16825;DHT22;8529;48.108;-1.706;2022-10-16T06:30:19;15.10;99.90
16825;DHT22;8529;48.108;-1.706;2022-10-16T06:32:47;15.10;99.90
16825;DHT22;8529;48.108;-1.706;2022-10-16T06:35:14;15.10;99.90
16825;DHT22;8529;48.108;-1.706;2022-10-16T06:37:41;15.20;99.90
16825;DHT22;8529;48.108;-1.706;2022-10-16T06:40:08;15.20;99.90
16825;DHT22;8529;48.108;-1.706;2022-10-16T06:42:35;15.20;99.90
16825;DHT22;8529;48.108;-1.706;2022-10-16T06:45:02;15.20;99.90
16825;DHT22;8529;48.108;-1.706;2022-10-16T06:47:29;15.20;99.90
16825;DHT22;8529;48.108;-1.706;2022-10-16T06:49:57;15.20;99.90
16825;DHT22;8529;48.108;-1.706;2022-10-16T06:52:24;15.20;99.90
16825;DHT22;8529;48.108;-1.706;2022-10-16T06:54:54;15.20;99.90
16825;DHT22;8529;48.108;-1.706;2022-10-16T06:57:21;15.20;99.90
16825;DHT22;8529;48.108;-1.706;2022-10-16T06:59:48;15.20;99.90
16825;DHT22;8529;48.108;-1.706;2022-10-16T07:02:15;15.20;99.90
16825;DHT22;8529;48.108;-1.706;2022-10-16T07:04:42;15.20;99.90
16825;DHT22;8529;48.108;-1.706;2022-10-16T07:07:10;15.20;99.90
16825;DHT22;8529;48.108;-1.706;2022-10-16T07:09:37;15.20;99.90
16825;DHT22;8529;48.108;-1.706;2022-10-16T07:12:04;15.20;99.90
16825;DHT22;8529;48.108;-1.706;2022-10-16T07:14:31;15.20;99.90
16825;DHT22;8529;48.108;-1.706;2022-10-16T07:16:58;15.20;99.90
16825;DHT22;8529;48.108;-1.706;2022-10-16T07:19:25;15.30;99.90
16825;DHT22;8529;48.108;-1.706;2022-10-16T07:21:52;15.30;99.90
16825;DHT22;8529;48.108;-1.706;2022-10-16T07:24:20;15.30;99.90
16825;DHT22;8529;48.108;-1.706;2022-10-16T07:26:47;15.40;99.90
16825;DHT22;8529;48.108;-1.706;2022-10-16T07:29:16;15.40;99.90
16825;DHT22;8529;48.108;-1.706;2022-10-16T07:31:44;15.40;99.90
16825;DHT22;8529;48.108;-1.706;2022-10-16T07:34:11;15.40;99.90
16825;DHT22;8529;48.108;-1.706;2022-10-16T07:36:39;15.40;99.90
16825;DHT22;8529;48.108;-1.706;2022-10-16T07:39:06;15.40;99.90
16825;DHT22;8529;48.108;-1.706;2022-10-16T07:41:34;15.40;99.90
16825;DHT22;8529;48.108;-1.706;2022-10-16T07:44:03;15.40;99.90
16825;DHT22;8529;48.108;-1.706;2022-10-16T07:46:30;15.50;99.90
16825;DHT22;8529;48.108;-1.706;2022-10-16T07:48:59;15.50;99.90
16825;DHT22;8529;48.108;-1.706;2022-10-16T07:51:26;15.50;99.90
16825;DHT22;8529;48.108;-1.706;2022-10-16T07:53:53;15.60;99.90
16825;DHT22;8529;48.108;-1.706;2022-10-16T07:56:21;15.60;99.90
16825;DHT22;8529;48.108;-1.706;2022-10-16T07:58:50;15.70;99.90
16825;DHT22;8529;48.108;-1.706;2022-10-16T08:01:17;15.70;99.90
16825;DHT22;8529;48.108;-1.706;2022-10-16T08:03:47;15.60;99.90
16825;DHT22;8529;48.108;-1.706;2022-10-16T08:06:14;15.60;99.90
16825;DHT22;8529;48.108;-1.706;2022-10-16T08:08:41;15.70;99.90
16825;DHT22;8529;48.108;-1.706;2022-10-16T08:11:08;15.70;99.90
16825;DHT22;8529;48.108;-1.706;2022-10-16T08:13:36;15.80;99.90
16825;DHT22;8529;48.108;-1.706;2022-10-16T08:16:05;15.80;99.90
16825;DHT22;8529;48.108;-1.706;2022-10-16T08:18:33;15.90;99.90
16825;DHT22;8529;48.108;-1.706;2022-10-16T08:21:01;15.90;99.90
16825;DHT22;8529;48.108;-1.706;2022-10-16T08:23:28;15.90;99.90
16825;DHT22;8529;48.108;-1.706;2022-10-16T08:26:00;15.90;99.90
16825;DHT22;8529;48.108;-1.706;2022-10-16T08:28:28;15.80;99.90
16825;DHT22;8529;48.108;-1.706;2022-10-16T08:30:54;15.90;99.90
16825;DHT22;8529;48.108;-1.706;2022-10-16T08:33:23;15.90;99.90
16825;DHT22;8529;48.108;-1.706;2022-10-16T08:35:51;15.80;99.90
16825;DHT22;8529;48.108;-1.706;2022-10-16T08:38:19;15.80;99.90
16825;DHT22;8529;48.108;-1.706;2022-10-16T08:40:46;15.80;99.90
16825;DHT22;8529;48.108;-1.706;2022-10-16T08:43:37;15.80;99.90
16825;DHT22;8529;48.108;-1.706;2022-10-16T08:46:20;15.80;99.90
16825;DHT22;8529;48.108;-1.706;2022-10-16T08:48:54;15.80;99.90
16825;DHT22;8529;48.108;-1.706;2022-10-16T08:51:24;15.90;99.90
16825;DHT22;8529;48.108;-1.706;2022-10-16T08:53:55;15.90;99.90
16825;DHT22;8529;48.108;-1.706;2022-10-16T08:56:23;15.90;99.90
16825;DHT22;8529;48.108;-1.706;2022-10-16T08:58:51;15.90;99.90
16825;DHT22;8529;48.108;-1.706;2022-10-16T09:01:20;15.90;99.90
16825;DHT22;8529;48.108;-1.706;2022-10-16T09:04:15;15.90;99.90
16825;DHT22;8529;48.108;-1.706;2022-10-16T09:06:47;15.90;99.90
16825;DHT22;8529;48.108;-1.706;2022-10-16T09:09:47;16.00;99.90
16825;DHT22;8529;48.108;-1.706;2022-10-16T09:12:19;16.00;99.90
16825;DHT22;8529;48.108;-1.706;2022-10-16T09:14:56;16.00;99.90
16825;DHT22;8529;48.108;-1.706;2022-10-16T09:17:41;16.00;99.90
16825;DHT22;8529;48.108;-1.706;2022-10-16T09:20:25;16.00;99.90
16825;DHT22;8529;48.108;-1.706;2022-10-16T09:22:58;16.00;99.90
16825;DHT22;8529;48.108;-1.706;2022-10-16T09:25:26;16.00;99.90
16825;DHT22;8529;48.108;-1.706;2022-10-16T09:27:53;16.00;99.90
16825;DHT22;8529;48.108;-1.706;2022-10-16T09:30:21;16.00;99.90
16825;DHT22;8529;48.108;-1.706;2022-10-16T09:32:51;16.00;99.90
16825;DHT22;8529;48.108;-1.706;2022-10-16T09:35:22;16.10;99.90
16825;DHT22;8529;48.108;-1.706;2022-10-16T09:37:54;16.10;99.90
16825;DHT22;8529;48.108;-1.706;2022-10-16T09:40:26;16.20;99.90
16825;DHT22;8529;48.108;-1.706;2022-10-16T09:43:01;16.20;99.90
16825;DHT22;8529;48.108;-1.706;2022-10-16T09:45:28;16.20;99.90
16825;DHT22;8529;48.108;-1.706;2022-10-16T09:47:56;16.20;99.90
16825;DHT22;8529;48.108;-1.706;2022-10-16T09:50:27;16.20;99.90
16825;DHT22;8529;48.108;-1.706;2022-10-16T09:53:05;16.30;99.90
16825;DHT22;8529;48.108;-1.706;2022-10-16T09:55:32;16.30;99.90
16825;DHT22;8529;48.108;-1.706;2022-10-16T09:57:59;16.30;99.90
16825;DHT22;8529;48.108;-1.706;2022-10-16T10:00:25;16.40;99.90
16825;DHT22;8529;48.108;-1.706;2022-10-16T10:02:53;16.40;99.90
16825;DHT22;8529;48.108;-1.706;2022-10-16T10:05:22;16.40;99.90
16825;DHT22;8529;48.108;-1.706;2022-10-16T10:07:56;16.40;99.90
16825;DHT22;8529;48.108;-1.706;2022-10-16T10:10:26;16.40;99.90
16825;DHT22;8529;48.108;-1.706;2022-10-16T10:12:54;16.40;99.90
16825;DHT22;8529;48.108;-1.706;2022-10-16T10:15:21;16.40;99.90
16825;DHT22;8529;48.108;-1.706;2022-10-16T10:17:51;16.40;99.90
16825;DHT22;8529;48.108;-1.706;2022-10-16T10:20:26;16.40;99.90
16825;DHT22;8529;48.108;-1.706;2022-10-16T10:22:55;16.40;99.90
16825;DHT22;8529;48.108;-1.706;2022-10-16T10:25:38;16.40;99.90
16825;DHT22;8529;48.108;-1.706;2022-10-16T10:28:25;16.40;99.90
16825;DHT22;8529;48.108;-1.706;2022-10-16T10:30:59;16.40;99.90
16825;DHT22;8529;48.108;-1.706;2022-10-16T10:33:34;16.40;99.90
16825;DHT22;8529;48.108;-1.706;2022-10-16T10:36:15;16.40;99.90
16825;DHT22;8529;48.108;-1.706;2022-10-16T10:38:50;16.30;99.90
16825;DHT22;8529;48.108;-1.706;2022-10-16T10:44:15;16.20;99.90
16825;DHT22;8529;48.108;-1.706;2022-10-16T10:46:48;16.10;99.90
16825;DHT22;8529;48.108;-1.706;2022-10-16T10:49:32;16.00;99.90
16825;DHT22;8529;48.108;-1.706;2022-10-16T10:52:10;16.00;99.90
16825;DHT22;8529;48.108;-1.706;2022-10-16T10:54:45;16.00;99.90
16825;DHT22;8529;48.108;-1.706;2022-10-16T10:57:22;15.90;99.90
16825;DHT22;8529;48.108;-1.706;2022-10-16T11:00:06;15.90;99.90
16825;DHT22;8529;48.108;-1.706;2022-10-16T11:02:40;15.90;99.90
16825;DHT22;8529;48.108;-1.706;2022-10-16T11:08:17;15.80;99.90
16825;DHT22;8529;48.108;-1.706;2022-10-16T11:10:52;15.80;99.90
16825;DHT22;8529;48.108;-1.706;2022-10-16T11:13:28;15.80;99.90
16825;DHT22;8529;48.108;-1.706;2022-10-16T11:15:59;15.70;99.90
16825;DHT22;8529;48.108;-1.706;2022-10-16T11:18:33;15.70;99.90
16825;DHT22;8529;48.108;-1.706;2022-10-16T11:21:06;15.70;99.90
16825;DHT22;8529;48.108;-1.706;2022-10-16T11:23:39;15.70;99.90
16825;DHT22;8529;48.108;-1.706;2022-10-16T11:26:13;15.60;99.90
16825;DHT22;8529;48.108;-1.706;2022-10-16T11:28:45;15.60;99.90
16825;DHT22;8529;48.108;-1.706;2022-10-16T11:31:17;15.60;99.90
16825;DHT22;8529;48.108;-1.706;2022-10-16T11:33:49;15.60;99.90
16825;DHT22;8529;48.108;-1.706;2022-10-16T11:36:21;15.60;99.90
16825;DHT22;8529;48.108;-1.706;2022-10-16T11:38:53;15.60;99.90
16825;DHT22;8529;48.108;-1.706;2022-10-16T11:41:27;15.50;99.90
16825;DHT22;8529;48.108;-1.706;2022-10-16T11:44:12;15.50;99.90
16825;DHT22;8529;48.108;-1.706;2022-10-16T11:46:45;15.60;99.90
16825;DHT22;8529;48.108;-1.706;2022-10-16T11:49:18;15.60;99.90
16825;DHT22;8529;48.108;-1.706;2022-10-16T11:51:54;15.60;99.90
16825;DHT22;8529;48.108;-1.706;2022-10-16T11:54:30;15.60;99.90
16825;DHT22;8529;48.108;-1.706;2022-10-16T11:57:07;15.70;99.90
16825;DHT22;8529;48.108;-1.706;2022-10-16T11:59:41;15.70;99.90
16825;DHT22;8529;48.108;-1.706;2022-10-16T12:02:29;15.70;99.90
16825;DHT22;8529;48.108;-1.706;2022-10-16T12:05:05;15.70;99.90
16825;DHT22;8529;48.108;-1.706;2022-10-16T12:07:36;15.70;99.90
16825;DHT22;8529;48.108;-1.706;2022-10-16T12:10:11;15.70;99.90
16825;DHT22;8529;48.108;-1.706;2022-10-16T12:12:46;15.80;99.90
16825;DHT22;8529;48.108;-1.706;2022-10-16T12:15:23;15.80;99.90
16825;DHT22;8529;48.108;-1.706;2022-10-16T12:17:52;15.80;99.90
16825;DHT22;8529;48.108;-1.706;2022-10-16T12:20:22;15.80;99.90
16825;DHT22;8529;48.108;-1.706;2022-10-16T12:22:53;15.90;99.90
16825;DHT22;8529;48.108;-1.706;2022-10-16T12:25:24;15.90;99.90
16825;DHT22;8529;48.108;-1.706;2022-10-16T12:28:03;15.90;99.90
16825;DHT22;8529;48.108;-1.706;2022-10-16T12:30:33;16.00;99.90
16825;DHT22;8529;48.108;-1.706;2022-10-16T12:33:02;16.10;99.90
16825;DHT22;8529;48.108;-1.706;2022-10-16T12:35:32;16.10;99.90
16825;DHT22;8529;48.108;-1.706;2022-10-16T12:38:17;16.10;99.90
16825;DHT22;8529;48.108;-1.706;2022-10-16T12:40:45;16.10;99.90
16825;DHT22;8529;48.108;-1.706;2022-10-16T12:43:36;16.20;99.90
16825;DHT22;8529;48.108;-1.706;2022-10-16T12:46:19;16.20;99.90
16825;DHT22;8529;48.108;-1.706;2022-10-16T12:48:47;16.20;99.90
16825;DHT22;8529;48.108;-1.706;2022-10-16T12:51:23;16.30;99.90
16825;DHT22;8529;48.108;-1.706;2022-10-16T12:53:58;16.30;99.90
16825;DHT22;8529;48.108;-1.706;2022-10-16T12:56:31;16.30;99.90
16825;DHT22;8529;48.108;-1.706;2022-10-16T12:59:09;16.30;99.90
16825;DHT22;8529;48.108;-1.706;2022-10-16T13:01:49;16.30;99.90
16825;DHT22;8529;48.108;-1.706;2022-10-16T13:04:47;16.40;99.90
16825;DHT22;8529;48.108;-1.706;2022-10-16T13:07:29;16.40;99.90
16825;DHT22;8529;48.108;-1.706;2022-10-16T13:10:09;16.40;99.90
16825;DHT22;8529;48.108;-1.706;2022-10-16T13:13:04;16.40;99.90
16825;DHT22;8529;48.108;-1.706;2022-10-16T13:15:51;16.50;99.90
16825;DHT22;8529;48.108;-1.706;2022-10-16T13:18:23;16.50;99.90
16825;DHT22;8529;48.108;-1.706;2022-10-16T13:21:11;16.50;99.90
16825;DHT22;8529;48.108;-1.706;2022-10-16T13:23:48;16.60;99.90
16825;DHT22;8529;48.108;-1.706;2022-10-16T13:26:25;16.60;99.90
16825;DHT22;8529;48.108;-1.706;2022-10-16T13:28:54;16.60;99.90
16825;DHT22;8529;48.108;-1.706;2022-10-16T13:31:26;16.60;99.90
16825;DHT22;8529;48.108;-1.706;2022-10-16T13:33:56;16.70;99.90
16825;DHT22;8529;48.108;-1.706;2022-10-16T13:36:26;16.70;99.90
16825;DHT22;8529;48.108;-1.706;2022-10-16T13:39:12;16.70;99.90
16825;DHT22;8529;48.108;-1.706;2022-10-16T13:41:39;16.70;99.90
16825;DHT22;8529;48.108;-1.706;2022-10-16T13:44:14;16.70;99.90
16825;DHT22;8529;48.108;-1.706;2022-10-16T13:46:43;16.70;99.90
16825;DHT22;8529;48.108;-1.706;2022-10-16T13:49:15;16.70;99.90
16825;DHT22;8529;48.108;-1.706;2022-10-16T13:51:54;16.80;99.90
16825;DHT22;8529;48.108;-1.706;2022-10-16T13:54:21;16.80;99.90
16825;DHT22;8529;48.108;-1.706;2022-10-16T13:56:48;16.80;99.90
16825;DHT22;8529;48.108;-1.706;2022-10-16T13:59:23;16.80;99.90
16825;DHT22;8529;48.108;-1.706;2022-10-16T14:01:53;16.80;99.90
16825;DHT22;8529;48.108;-1.706;2022-10-16T14:04:21;16.90;99.90
16825;DHT22;8529;48.108;-1.706;2022-10-16T14:06:50;16.90;99.90
16825;DHT22;8529;48.108;-1.706;2022-10-16T14:09:23;16.90;99.90
16825;DHT22;8529;48.108;-1.706;2022-10-16T14:11:53;16.90;99.90
16825;DHT22;8529;48.108;-1.706;2022-10-16T14:14:21;17.00;99.90
16825;DHT22;8529;48.108;-1.706;2022-10-16T14:16:49;17.00;99.90
16825;DHT22;8529;48.108;-1.706;2022-10-16T14:19:21;17.00;99.90
16825;DHT22;8529;48.108;-1.706;2022-10-16T14:21:49;17.10;99.90
16825;DHT22;8529;48.108;-1.706;2022-10-16T14:24:26;17.10;99.90
16825;DHT22;8529;48.108;-1.706;2022-10-16T14:26:53;17.10;99.90
16825;DHT22;8529;48.108;-1.706;2022-10-16T14:29:23;17.00;99.90
16825;DHT22;8529;48.108;-1.706;2022-10-16T14:31:57;17.00;99.90
16825;DHT22;8529;48.108;-1.706;2022-10-16T14:34:29;17.00;99.90
16825;DHT22;8529;48.108;-1.706;2022-10-16T14:36:59;17.00;99.90
16825;DHT22;8529;48.108;-1.706;2022-10-16T14:39:28;17.00;99.90
16825;DHT22;8529;48.108;-1.706;2022-10-16T14:41:56;17.00;99.90
16825;DHT22;8529;48.108;-1.706;2022-10-16T14:44:28;17.00;99.90
16825;DHT22;8529;48.108;-1.706;2022-10-16T14:46:56;17.10;99.90
16825;DHT22;8529;48.108;-1.706;2022-10-16T14:49:27;17.10;99.90
16825;DHT22;8529;48.108;-1.706;2022-10-16T14:51:54;17.10;99.90
16825;DHT22;8529;48.108;-1.706;2022-10-16T14:54:22;17.20;99.90
16825;DHT22;8529;48.108;-1.706;2022-10-16T14:56:51;17.20;99.90
16825;DHT22;8529;48.108;-1.706;2022-10-16T14:59:23;17.20;99.90
16825;DHT22;8529;48.108;-1.706;2022-10-16T15:01:52;17.30;99.90
16825;DHT22;8529;48.108;-1.706;2022-10-16T15:04:19;17.30;99.90
16825;DHT22;8529;48.108;-1.706;2022-10-16T15:06:47;17.40;99.90
16825;DHT22;8529;48.108;-1.706;2022-10-16T15:09:14;17.40;99.90
16825;DHT22;8529;48.108;-1.706;2022-10-16T15:11:42;17.40;99.90
16825;DHT22;8529;48.108;-1.706;2022-10-16T15:14:11;17.40;99.90
16825;DHT22;8529;48.108;-1.706;2022-10-16T15:16:38;17.40;99.90
16825;DHT22;8529;48.108;-1.706;2022-10-16T15:19:05;17.40;99.90
16825;DHT22;8529;48.108;-1.706;2022-10-16T15:21:32;17.40;99.90
16825;DHT22;8529;48.108;-1.706;2022-10-16T15:24:01;17.30;99.90
16825;DHT22;8529;48.108;-1.706;2022-10-16T15:26:29;17.30;99.90
16825;DHT22;8529;48.108;-1.706;2022-10-16T15:28:56;17.30;99.90
16825;DHT22;8529;48.108;-1.706;2022-10-16T15:31:23;17.30;99.90
16825;DHT22;8529;48.108;-1.706;2022-10-16T15:33:50;17.30;99.90
16825;DHT22;8529;48.108;-1.706;2022-10-16T15:36:25;17.30;99.90
16825;DHT22;8529;48.108;-1.706;2022-10-16T15:38:52;17.30;99.90
16825;DHT22;8529;48.108;-1.706;2022-10-16T15:41:21;17.30;99.90
16825;DHT22;8529;48.108;-1.706;2022-10-16T15:43:49;17.30;99.90
16825;DHT22;8529;48.108;-1.706;2022-10-16T15:46:18;17.30;99.90
16825;DHT22;8529;48.108;-1.706;2022-10-16T15:48:46;17.30;99.90
16825;DHT22;8529;48.108;-1.706;2022-10-16T15:51:13;17.30;99.90
16825;DHT22;8529;48.108;-1.706;2022-10-16T15:53:40;17.40;99.90
16825;DHT22;8529;48.108;-1.706;2022-10-16T15:56:09;17.40;99.90
16825;DHT22;8529;48.108;-1.706;2022-10-16T15:58:38;17.40;99.90